sensor_id;sensor_type;location;lat;lon;timestamp;pressure;altitude;pressure_sealevel;temperature;humidity
14689;BME280;7432;48.728;9.154;2023-04-16T00:00:07;96450.97;;;7.36;100.00
14689;BME280;7432;48.728;9.154;2023-04-16T00:02:34;96447.47;;;7.37;100.00
14689;BME280;7432;48.728;9.154;2023-04-16T00:05:00;96445.72;;;7.37;100.00
14689;BME280;7432;48.728;9.154;2023-04-16T00:07:28;96444.91;;;7.37;100.00
14689;BME280;7432;48.728;9.154;2023-04-16T00:09:55;96448.28;;;7.37;100.00
14689;BME280;7432;48.728;9.154;2023-04-16T00:12:22;96448.28;;;7.37;100.00
14689;BME280;7432;48.728;9.154;2023-04-16T00:14:48;96447.47;;;7.37;100.00
14689;BME280;7432;48.728;9.154;2023-04-16T00:17:15;96446.00;;;7.34;100.00
14689;BME280;7432;48.728;9.154;2023-04-16T00:19:41;96455.81;;;7.39;100.00
14689;BME280;7432;48.728;9.154;2023-04-16T00:22:08;96452.22;;;7.32;100.00
14689;BME280;7432;48.728;9.154;2023-04-16T00:24:35;96448.06;;;7.21;100.00
14689;BME280;7432;48.728;9.154;2023-04-16T00:27:02;96460.44;;;7.26;100.00
14689;BME280;7432;48.728;9.154;2023-04-16T00:29:28;96445.91;;;7.26;100.00
14689;BME280;7432;48.728;9.154;2023-04-16T00:31:55;96450.75;;;7.29;100.00
14689;BME280;7432;48.728;9.154;2023-04-16T00:34:21;96458.16;;;7.32;100.00
14689;BME280;7432;48.728;9.154;2023-04-16T00:36:48;96450.31;;;7.24;100.00
14689;BME280;7432;48.728;9.154;2023-04-16T00:39:14;96450.16;;;7.35;100.00
14689;BME280;7432;48.728;9.154;2023-04-16T00:41:42;96453.69;;;7.34;100.00
14689;BME280;7432;48.728;9.154;2023-04-16T00:44:09;96452.59;;;7.27;100.00
14689;BME280;7432;48.728;9.154;2023-04-16T00:46:35;96454.09;;;7.30;100.00
14689;BME280;7432;48.728;9.154;2023-04-16T00:49:02;96453.53;;;7.36;100.00
14689;BME280;7432;48.728;9.154;2023-04-16T00:51:29;96456.25;;;7.34;100.00
14689;BME280;7432;48.728;9.154;2023-04-16T00:53:56;96453.69;;;7.34;100.00
14689;BME280;7432;48.728;9.154;2023-04-16T00:56:23;96448.69;;;7.33;100.00
14689;BME280;7432;48.728;9.154;2023-04-16T00:58:51;96454.63;;;7.33;100.00
14689;BME280;7432;48.728;9.154;2023-04-16T01:01:17;96450.91;;;7.18;100.00
14689;BME280;7432;48.728;9.154;2023-04-16T01:03:46;96450.06;;;7.27;100.00
14689;BME280;7432;48.728;9.154;2023-04-16T01:06:13;96452.47;;;7.29;100.00
14689;BME280;7432;48.728;9.154;2023-04-16T01:08:39;96445.75;;;7.28;100.00
14689;BME280;7432;48.728;9.154;2023-04-16T01:11:06;96452.97;;;7.42;100.00
14689;BME280;7432;48.728;9.154;2023-04-16T01:13:32;96458.91;;;7.42;100.00
14689;BME280;7432;48.728;9.154;2023-04-16T01:16:00;96455.97;;;7.28;100.00
14689;BME280;7432;48.728;9.154;2023-04-16T01:18:27;96458.94;;;7.33;100.00
14689;BME280;7432;48.728;9.154;2023-04-16T01:20:54;96458.16;;;7.32;100.00
14689;BME280;7432;48.728;9.154;2023-04-16T01:23:21;96456.50;;;7.31;100.00
14689;BME280;7432;48.728;9.154;2023-04-16T01:25:47;96462.69;;;7.38;100.00
14689;BME280;7432;48.728;9.154;2023-04-16T01:28:13;96472.81;;;7.40;100.00
14689;BME280;7432;48.728;9.154;2023-04-16T01:30:40;96470.25;;;7.40;100.00
14689;BME280;7432;48.728;9.154;2023-04-16T01:33:09;96463.38;;;7.40;100.00
14689;BME280;7432;48.728;9.154;2023-04-16T01:35:35;96469.97;;;7.43;100.00
14689;BME280;7432;48.728;9.154;2023-04-16T01:38:04;96470.47;;;7.46;100.00
14689;BME280;7432;48.728;9.154;2023-04-16T01:40:32;96472.81;;;7.40;100.00
14689;BME280;7432;48.728;9.154;2023-04-16T01:42:58;96471.59;;;7.34;100.00
14689;BME280;7432;48.728;9.154;2023-04-16T01:45:24;96472.00;;;7.30;100.00
14689;BME280;7432;48.728;9.154;2023-04-16T01:47:51;96477.00;;;7.31;100.00
14689;BME280;7432;48.728;9.154;2023-04-16T01:50:18;96470.13;;;7.32;100.00
14689;BME280;7432;48.728;9.154;2023-04-16T01:52:44;96475.09;;;7.33;100.00
14689;BME280;7432;48.728;9.154;2023-04-16T01:55:12;96466.75;;;7.31;100.00
14689;BME280;7432;48.728;9.154;2023-04-16T01:57:38;96470.94;;;7.32;100.00
14689;BME280;7432;48.728;9.154;2023-04-16T02:00:06;96474.81;;;7.36;100.00
14689;BME280;7432;48.728;9.154;2023-04-16T02:02:33;96478.22;;;7.27;100.00
14689;BME280;7432;48.728;9.154;2023-04-16T02:05:00;96470.13;;;7.32;100.00
14689;BME280;7432;48.728;9.154;2023-04-16T02:07:27;96469.16;;;7.33;100.00
14689;BME280;7432;48.728;9.154;2023-04-16T02:09:55;96467.97;;;7.37;100.00
14689;BME280;7432;48.728;9.154;2023-04-16T02:12:23;96475.09;;;7.43;100.00
14689;BME280;7432;48.728;9.154;2023-04-16T02:14:50;96477.66;;;7.43;100.00
14689;BME280;7432;48.728;9.154;2023-04-16T02:17:16;96470.38;;;7.38;100.00
14689;BME280;7432;48.728;9.154;2023-04-16T02:19:42;96468.88;;;7.45;100.00
14689;BME280;7432;48.728;9.154;2023-04-16T02:22:09;96470.69;;;7.26;100.00
14689;BME280;7432;48.728;9.154;2023-04-16T02:24:35;96472.69;;;7.32;100.00
14689;BME280;7432;48.728;9.154;2023-04-16T02:27:01;96468.13;;;7.26;100.00
14689;BME280;7432;48.728;9.154;2023-04-16T02:29:29;96474.06;;;7.26;100.00
14689;BME280;7432;48.728;9.154;2023-04-16T02:31:56;96477.28;;;7.28;100.00
14689;BME280;7432;48.728;9.154;2023-04-16T02:34:23;96471.50;;;7.26;100.00
14689;BME280;7432;48.728;9.154;2023-04-16T02:36:50;96483.22;;;7.19;100.00
14689;BME280;7432;48.728;9.154;2023-04-16T02:39:16;96482.25;;;7.30;100.00
14689;BME280;7432;48.728;9.154;2023-04-16T02:41:42;96477.00;;;7.31;100.00
14689;BME280;7432;48.728;9.154;2023-04-16T02:44:09;96477.81;;;7.32;100.00
14689;BME280;7432;48.728;9.154;2023-04-16T02:46:36;96482.22;;;7.39;100.00
14689;BME280;7432;48.728;9.154;2023-04-16T02:49:03;96483.75;;;7.32;100.00
14689;BME280;7432;48.728;9.154;2023-04-16T02:51:29;96477.38;;;7.36;100.00
14689;BME280;7432;48.728;9.154;2023-04-16T02:53:57;96485.25;;;7.25;100.00
14689;BME280;7432;48.728;9.154;2023-04-16T02:56:23;96487.38;;;7.30;100.00
14689;BME280;7432;48.728;9.154;2023-04-16T02:58:50;96484.84;;;7.20;100.00
14689;BME280;7432;48.728;9.154;2023-04-16T03:01:16;96480.94;;;7.16;100.00
14689;BME280;7432;48.728;9.154;2023-04-16T03:03:44;96483.63;;;7.24;100.00
14689;BME280;7432;48.728;9.154;2023-04-16T03:06:10;96485.41;;;7.24;100.00
14689;BME280;7432;48.728;9.154;2023-04-16T03:08:37;96487.38;;;7.30;100.00
14689;BME280;7432;48.728;9.154;2023-04-16T03:11:03;96482.16;;;7.22;100.00
14689;BME280;7432;48.728;9.154;2023-04-16T03:13:30;96490.38;;;7.25;100.00
14689;BME280;7432;48.728;9.154;2023-04-16T03:15:56;96487.09;;;7.33;100.00
14689;BME280;7432;48.728;9.154;2023-04-16T03:18:22;96485.91;;;7.27;100.00
14689;BME280;7432;48.728;9.154;2023-04-16T03:20:51;96488.34;;;7.29;100.00
14689;BME280;7432;48.728;9.154;2023-04-16T03:23:18;96488.34;;;7.29;100.00
14689;BME280;7432;48.728;9.154;2023-04-16T03:25:45;96494.94;;;7.31;100.00
14689;BME280;7432;48.728;9.154;2023-04-16T03:28:12;96491.31;;;7.24;100.00
14689;BME280;7432;48.728;9.154;2023-04-16T03:30:38;96490.75;;;7.30;100.00
14689;BME280;7432;48.728;9.154;2023-04-16T03:33:04;96493.91;;;7.14;100.00
14689;BME280;7432;48.728;9.154;2023-04-16T03:35:31;96492.28;;;7.13;100.00
14689;BME280;7432;48.728;9.154;2023-04-16T03:37:58;96498.47;;;7.21;100.00
14689;BME280;7432;48.728;9.154;2023-04-16T03:40:25;96497.38;;;7.23;100.00
14689;BME280;7432;48.728;9.154;2023-04-16T03:42:51;96499.94;;;7.23;100.00
14689;BME280;7432;48.728;9.154;2023-04-16T03:45:17;96502.50;;;7.23;100.00
14689;BME280;7432;48.728;9.154;2023-04-16T03:47:44;96505.63;;;7.17;100.00
14689;BME280;7432;48.728;9.154;2023-04-16T03:50:12;96505.22;;;7.12;100.00
14689;BME280;7432;48.728;9.154;2023-04-16T03:52:39;96517.66;;;7.07;100.00
14689;BME280;7432;48.728;9.154;2023-04-16T03:55:07;96510.09;;;7.15;100.00
14689;BME280;7432;48.728;9.154;2023-04-16T03:57:33;96507.63;;;7.13;100.00
14689;BME280;7432;48.728;9.154;2023-04-16T04:00:00;96497.94;;;7.17;100.00
14689;BME280;7432;48.728;9.154;2023-04-16T04:02:26;96512.22;;;7.20;100.00
14689;BME280;7432;48.728;9.154;2023-04-16T04:04:53;96511.69;;;7.16;100.00
14689;BME280;7432;48.728;9.154;2023-04-16T04:07:19;96504.56;;;7.10;100.00
14689;BME280;7432;48.728;9.154;2023-04-16T04:09:45;96514.66;;;7.11;100.00
14689;BME280;7432;48.728;9.154;2023-04-16T04:12:13;96515.34;;;7.04;100.00
14689;BME280;7432;48.728;9.154;2023-04-16T04:14:39;96508.09;;;6.99;100.00
14689;BME280;7432;48.728;9.154;2023-04-16T04:17:07;96514.13;;;7.08;100.00
14689;BME280;7432;48.728;9.154;2023-04-16T04:19:33;96511.16;;;7.12;100.00
14689;BME280;7432;48.728;9.154;2023-04-16T04:22:00;96521.13;;;7.15;100.00
14689;BME280;7432;48.728;9.154;2023-04-16T04:24:26;96521.53;;;7.11;100.00
14689;BME280;7432;48.728;9.154;2023-04-16T04:26:52;96525.06;;;7.10;100.00
14689;BME280;7432;48.728;9.154;2023-04-16T04:29:20;96537.16;;;7.08;100.00
14689;BME280;7432;48.728;9.154;2023-04-16T04:31:46;96523.28;;;7.10;100.00
14689;BME280;7432;48.728;9.154;2023-04-16T04:34:13;96521.91;;;7.16;100.00
14689;BME280;7432;48.728;9.154;2023-04-16T04:36:39;96538.38;;;7.13;100.00
14689;BME280;7432;48.728;9.154;2023-04-16T04:39:05;96534.34;;;7.11;100.00
14689;BME280;7432;48.728;9.154;2023-04-16T04:41:32;96538.25;;;7.05;100.00
14689;BME280;7432;48.728;9.154;2023-04-16T04:43:58;96544.31;;;7.14;100.00
14689;BME280;7432;48.728;9.154;2023-04-16T04:46:26;96546.88;;;7.14;100.00
14689;BME280;7432;48.728;9.154;2023-04-16T04:48:52;96546.47;;;7.09;100.00
14689;BME280;7432;48.728;9.154;2023-04-16T04:51:18;96548.88;;;7.10;100.00
14689;BME280;7432;48.728;9.154;2023-04-16T04:53:45;96549.06;;;6.99;100.00
14689;BME280;7432;48.728;9.154;2023-04-16T04:56:11;96544.44;;;7.03;100.00
14689;BME280;7432;48.728;9.154;2023-04-16T04:58:37;96556.06;;;7.07;100.00
14689;BME280;7432;48.728;9.154;2023-04-16T05:01:04;96552.69;;;7.06;100.00
14689;BME280;7432;48.728;9.154;2023-04-16T05:03:32;96565.75;;;7.13;100.00
14689;BME280;7432;48.728;9.154;2023-04-16T05:05:58;96566.03;;;7.10;100.00
14689;BME280;7432;48.728;9.154;2023-04-16T05:08:24;96562.53;;;7.01;100.00
14689;BME280;7432;48.728;9.154;2023-04-16T05:10:51;96575.84;;;7.05;100.00
14689;BME280;7432;48.728;9.154;2023-04-16T05:13:17;96573.00;;;7.08;100.00
14689;BME280;7432;48.728;9.154;2023-04-16T05:15:44;96578.66;;;7.11;100.00
14689;BME280;7432;48.728;9.154;2023-04-16T05:18:10;96583.69;;;7.13;100.00
14689;BME280;7432;48.728;9.154;2023-04-16T05:20:38;96586.91;;;7.15;100.00
14689;BME280;7432;48.728;9.154;2023-04-16T05:23:04;96582.44;;;7.17;100.00
14689;BME280;7432;48.728;9.154;2023-04-16T05:25:31;96592.41;;;7.20;100.00
14689;BME280;7432;48.728;9.154;2023-04-16T05:27:57;96591.22;;;7.14;100.00
14689;BME280;7432;48.728;9.154;2023-04-16T05:30:23;96593.91;;;7.03;100.00
14689;BME280;7432;48.728;9.154;2023-04-16T05:32:50;96598.91;;;6.95;100.00
14689;BME280;7432;48.728;9.154;2023-04-16T05:35:16;96585.94;;;6.97;100.00
14689;BME280;7432;48.728;9.154;2023-04-16T05:37:44;96603.88;;;6.97;100.00
14689;BME280;7432;48.728;9.154;2023-04-16T05:40:12;96607.38;;;6.96;100.00
14689;BME280;7432;48.728;9.154;2023-04-16T05:42:38;96604.28;;;7.02;100.00
14689;BME280;7432;48.728;9.154;2023-04-16T05:45:05;96607.78;;;7.01;100.00
14689;BME280;7432;48.728;9.154;2023-04-16T05:47:32;96608.06;;;6.98;100.00
14689;BME280;7432;48.728;9.154;2023-04-16T05:49:58;96607.25;;;6.97;100.00
14689;BME280;7432;48.728;9.154;2023-04-16T05:52:24;96618.00;;;7.10;100.00
14689;BME280;7432;48.728;9.154;2023-04-16T05:54:52;96616.53;;;7.08;100.00
14689;BME280;7432;48.728;9.154;2023-04-16T05:57:18;96614.25;;;7.14;100.00
14689;BME280;7432;48.728;9.154;2023-04-16T05:59:45;96615.75;;;7.07;100.00
14689;BME280;7432;48.728;9.154;2023-04-16T06:02:11;96622.09;;;7.13;100.00
14689;BME280;7432;48.728;9.154;2023-04-16T06:04:37;96620.06;;;7.07;100.00
14689;BME280;7432;48.728;9.154;2023-04-16T06:07:04;96620.72;;;7.09;100.00
14689;BME280;7432;48.728;9.154;2023-04-16T06:09:30;96617.75;;;7.04;100.00
14689;BME280;7432;48.728;9.154;2023-04-16T06:11:58;96621.38;;;7.11;100.00
14689;BME280;7432;48.728;9.154;2023-04-16T06:14:25;96624.50;;;7.14;100.00
14689;BME280;7432;48.728;9.154;2023-04-16T06:16:51;96631.50;;;7.12;100.00
14689;BME280;7432;48.728;9.154;2023-04-16T06:19:17;96629.63;;;7.14;100.00
14689;BME280;7432;48.728;9.154;2023-04-16T06:21:44;96632.72;;;7.18;100.00
14689;BME280;7432;48.728;9.154;2023-04-16T06:24:10;96629.47;;;7.16;100.00
14689;BME280;7432;48.728;9.154;2023-04-16T06:26:37;96631.38;;;7.14;100.00
14689;BME280;7432;48.728;9.154;2023-04-16T06:29:05;96629.88;;;7.11;100.00
14689;BME280;7432;48.728;9.154;2023-04-16T06:31:31;96634.19;;;7.11;100.00
14689;BME280;7432;48.728;9.154;2023-04-16T06:33:57;96639.72;;;7.16;100.00
14689;BME280;7432;48.728;9.154;2023-04-16T06:36:24;96638.94;;;7.15;100.00
14689;BME280;7432;48.728;9.154;2023-04-16T06:38:51;96641.88;;;7.21;100.00
14689;BME280;7432;48.728;9.154;2023-04-16T06:41:18;96641.34;;;7.17;100.00
14689;BME280;7432;48.728;9.154;2023-04-16T06:43:44;96637.44;;;7.13;100.00
14689;BME280;7432;48.728;9.154;2023-04-16T06:46:12;96636.38;;;7.15;100.00
14689;BME280;7432;48.728;9.154;2023-04-16T06:48:38;96643.75;;;7.09;100.00
14689;BME280;7432;48.728;9.154;2023-04-16T06:51:05;96644.16;;;7.14;100.00
14689;BME280;7432;48.728;9.154;2023-04-16T06:53:31;96647.28;;;7.18;100.00
14689;BME280;7432;48.728;9.154;2023-04-16T06:55:58;96646.31;;;7.18;100.00
14689;BME280;7432;48.728;9.154;2023-04-16T06:58:24;96650.91;;;7.15;100.00
14689;BME280;7432;48.728;9.154;2023-04-16T07:00:51;96653.59;;;7.23;100.00
14689;BME280;7432;48.728;9.154;2023-04-16T07:03:19;96646.88;;;7.32;100.00
14689;BME280;7432;48.728;9.154;2023-04-16T07:05:45;96653.97;;;7.38;100.00
14689;BME280;7432;48.728;9.154;2023-04-16T07:08:11;96656.72;;;7.27;100.00
14689;BME280;7432;48.728;9.154;2023-04-16T07:10:38;96654.41;;;7.33;100.00
14689;BME280;7432;48.728;9.154;2023-04-16T07:13:04;96652.66;;;7.34;100.00
14689;BME280;7432;48.728;9.154;2023-04-16T07:15:31;96640.94;;;7.31;100.00
14689;BME280;7432;48.728;9.154;2023-04-16T07:17:57;96656.81;;;7.44;100.00
14689;BME280;7432;48.728;9.154;2023-04-16T07:20:25;96665.16;;;7.46;100.00
14689;BME280;7432;48.728;9.154;2023-04-16T07:22:51;96657.75;;;7.53;100.00
14689;BME280;7432;48.728;9.154;2023-04-16T07:25:17;96657.88;;;7.51;100.00
14689;BME280;7432;48.728;9.154;2023-04-16T07:27:44;96665.03;;;7.57;100.00
14689;BME280;7432;48.728;9.154;2023-04-16T07:30:11;96662.88;;;7.53;100.00
14689;BME280;7432;48.728;9.154;2023-04-16T07:32:37;96670.56;;;7.43;100.00
14689;BME280;7432;48.728;9.154;2023-04-16T07:35:04;96665.28;;;7.54;100.00
14689;BME280;7432;48.728;9.154;2023-04-16T07:37:31;96667.59;;;7.67;100.00
14689;BME280;7432;48.728;9.154;2023-04-16T07:39:58;96671.84;;;7.76;100.00
14689;BME280;7432;48.728;9.154;2023-04-16T07:42:25;96677.53;;;7.80;100.00
14689;BME280;7432;48.728;9.154;2023-04-16T07:44:51;96674.25;;;7.87;100.00
14689;BME280;7432;48.728;9.154;2023-04-16T07:47:18;96678.84;;;7.93;100.00
14689;BME280;7432;48.728;9.154;2023-04-16T07:49:44;96687.75;;;7.99;100.00
14689;BME280;7432;48.728;9.154;2023-04-16T07:52:10;96685.72;;;7.93;100.00
14689;BME280;7432;48.728;9.154;2023-04-16T07:54:38;96691.66;;;7.93;100.00
14689;BME280;7432;48.728;9.154;2023-04-16T07:57:05;96697.22;;;7.79;100.00
14689;BME280;7432;48.728;9.154;2023-04-16T07:59:31;96698.31;;;7.86;100.00
14689;BME280;7432;48.728;9.154;2023-04-16T08:01:57;96696.81;;;7.84;100.00
14689;BME280;7432;48.728;9.154;2023-04-16T08:04:24;96695.84;;;7.94;100.00
14689;BME280;7432;48.728;9.154;2023-04-16T08:06:50;96700.97;;;7.94;100.00
14689;BME280;7432;48.728;9.154;2023-04-16T08:09:17;96689.03;;;7.75;100.00
14689;BME280;7432;48.728;9.154;2023-04-16T08:11:45;96699.38;;;7.84;100.00
14689;BME280;7432;48.728;9.154;2023-04-16T08:14:13;96698.41;;;7.94;100.00
14689;BME280;7432;48.728;9.154;2023-04-16T08:16:39;96708.38;;;8.07;100.00
14689;BME280;7432;48.728;9.154;2023-04-16T08:19:06;96702.13;;;8.19;100.00
14689;BME280;7432;48.728;9.154;2023-04-16T08:21:32;96711.44;;;8.20;100.00
14689;BME280;7432;48.728;9.154;2023-04-16T08:23:58;96712.69;;;8.06;100.00
14689;BME280;7432;48.728;9.154;2023-04-16T08:26:25;96713.81;;;7.94;100.00
14689;BME280;7432;48.728;9.154;2023-04-16T08:28:52;96717.97;;;7.95;100.00
14689;BME280;7432;48.728;9.154;2023-04-16T08:31:19;96718.81;;;7.86;100.00
14689;BME280;7432;48.728;9.154;2023-04-16T08:33:45;96723.66;;;7.89;100.00
14689;BME280;7432;48.728;9.154;2023-04-16T08:36:12;96730.00;;;7.95;100.00
14689;BME280;7432;48.728;9.154;2023-04-16T08:38:38;96729.59;;;7.80;100.00
14689;BME280;7432;48.728;9.154;2023-04-16T08:41:05;96741.63;;;7.89;100.00
14689;BME280;7432;48.728;9.154;2023-04-16T08:43:36;96743.59;;;7.95;100.00
14689;BME280;7432;48.728;9.154;2023-04-16T08:46:06;96744.03;;;7.91;100.00
14689;BME280;7432;48.728;9.154;2023-04-16T08:48:33;96743.75;;;7.94;100.00
14689;BME280;7432;48.728;9.154;2023-04-16T08:51:00;96737.66;;;8.04;100.00
14689;BME280;7432;48.728;9.154;2023-04-16T08:53:32;96740.88;;;8.06;100.00
14689;BME280;7432;48.728;9.154;2023-04-16T08:56:02;96742.47;;;8.17;100.00
14689;BME280;7432;48.728;9.154;2023-04-16T08:58:30;96738.72;;;8.30;99.30
14689;BME280;7432;48.728;9.154;2023-04-16T09:00:59;96745.59;;;8.30;99.18
14689;BME280;7432;48.728;9.154;2023-04-16T09:03:28;96752.34;;;8.31;98.96
14689;BME280;7432;48.728;9.154;2023-04-16T09:05:55;96750.31;;;8.34;98.53
14689;BME280;7432;48.728;9.154;2023-04-16T09:08:24;96752.84;;;8.44;99.39
14689;BME280;7432;48.728;9.154;2023-04-16T09:10:51;96752.59;;;8.38;98.59
14689;BME280;7432;48.728;9.154;2023-04-16T09:13:19;96756.09;;;8.46;98.43
14689;BME280;7432;48.728;9.154;2023-04-16T09:15:50;96759.56;;;8.55;98.20
14689;BME280;7432;48.728;9.154;2023-04-16T09:18:17;96750.81;;;8.75;97.97
14689;BME280;7432;48.728;9.154;2023-04-16T09:20:46;96754.44;;;8.82;97.07
14689;BME280;7432;48.728;9.154;2023-04-16T09:23:12;96758.97;;;8.98;96.16
14689;BME280;7432;48.728;9.154;2023-04-16T09:25:39;96753.56;;;9.18;95.09
14689;BME280;7432;48.728;9.154;2023-04-16T09:28:05;96766.94;;;9.22;94.58
14689;BME280;7432;48.728;9.154;2023-04-16T09:30:31;96751.88;;;9.09;95.09
14689;BME280;7432;48.728;9.154;2023-04-16T09:33:11;96753.09;;;9.05;94.36
14689;BME280;7432;48.728;9.154;2023-04-16T09:35:45;96750.97;;;9.01;94.64
14689;BME280;7432;48.728;9.154;2023-04-16T09:38:12;96754.72;;;9.06;95.03
14689;BME280;7432;48.728;9.154;2023-04-16T09:40:39;96763.47;;;9.13;95.89
14689;BME280;7432;48.728;9.154;2023-04-16T09:43:09;96771.53;;;9.01;95.35
14689;BME280;7432;48.728;9.154;2023-04-16T09:45:47;96776.66;;;9.01;95.00
14689;BME280;7432;48.728;9.154;2023-04-16T09:48:14;96766.41;;;8.91;95.26
14689;BME280;7432;48.728;9.154;2023-04-16T09:50:48;96769.94;;;8.90;95.89
14689;BME280;7432;48.728;9.154;2023-04-16T09:53:22;96784.88;;;9.04;95.40
14689;BME280;7432;48.728;9.154;2023-04-16T09:55:49;96780.34;;;9.16;95.80
14689;BME280;7432;48.728;9.154;2023-04-16T09:58:17;96783.28;;;9.21;96.04
14689;BME280;7432;48.728;9.154;2023-04-16T10:00:44;96780.72;;;9.21;95.81
14689;BME280;7432;48.728;9.154;2023-04-16T10:03:10;96787.03;;;9.09;95.50
14689;BME280;7432;48.728;9.154;2023-04-16T10:05:36;96785.31;;;9.00;93.80
14689;BME280;7432;48.728;9.154;2023-04-16T10:08:11;96783.34;;;9.11;94.79
14689;BME280;7432;48.728;9.154;2023-04-16T10:10:38;96783.19;;;9.13;95.25
14689;BME280;7432;48.728;9.154;2023-04-16T10:13:05;96776.94;;;8.98;95.81
14689;BME280;7432;48.728;9.154;2023-04-16T10:15:31;96783.81;;;8.97;94.67
14689;BME280;7432;48.728;9.154;2023-04-16T10:17:58;96794.66;;;8.91;94.82
14689;BME280;7432;48.728;9.154;2023-04-16T10:20:25;96795.16;;;8.77;96.06
14689;BME280;7432;48.728;9.154;2023-04-16T10:22:52;96803.53;;;8.79;95.79
14689;BME280;7432;48.728;9.154;2023-04-16T10:25:21;96788.25;;;8.77;95.43
14689;BME280;7432;48.728;9.154;2023-04-16T10:27:48;96807.34;;;8.65;96.78
14689;BME280;7432;48.728;9.154;2023-04-16T10:30:16;96807.06;;;8.68;96.40
14689;BME280;7432;48.728;9.154;2023-04-16T10:32:44;96803.69;;;8.68;96.63
14689;BME280;7432;48.728;9.154;2023-04-16T10:35:14;96808.81;;;8.68;96.11
14689;BME280;7432;48.728;9.154;2023-04-16T10:37:41;96808.78;;;8.77;97.46
14689;BME280;7432;48.728;9.154;2023-04-16T10:40:22;96802.66;;;8.88;96.17
14689;BME280;7432;48.728;9.154;2023-04-16T10:42:53;96801.78;;;9.07;95.50
14689;BME280;7432;48.728;9.154;2023-04-16T10:45:25;96802.91;;;9.22;95.34
14689;BME280;7432;48.728;9.154;2023-04-16T10:47:54;96796.72;;;9.15;95.88
14689;BME280;7432;48.728;9.154;2023-04-16T10:50:21;96795.53;;;9.09;95.15
14689;BME280;7432;48.728;9.154;2023-04-16T10:52:47;96798.81;;;9.02;95.42
14689;BME280;7432;48.728;9.154;2023-04-16T10:55:15;96805.63;;;8.93;95.88
14689;BME280;7432;48.728;9.154;2023-04-16T10:57:48;96798.19;;;8.90;95.95
14689;BME280;7432;48.728;9.154;2023-04-16T11:00:21;96800.06;;;8.98;95.81
14689;BME280;7432;48.728;9.154;2023-04-16T11:02:51;96802.19;;;9.02;94.91
14689;BME280;7432;48.728;9.154;2023-04-16T11:05:20;96798.47;;;9.14;95.85
14689;BME280;7432;48.728;9.154;2023-04-16T11:07:47;96808.69;;;9.24;94.87
14689;BME280;7432;48.728;9.154;2023-04-16T11:10:14;96806.75;;;9.35;95.01
14689;BME280;7432;48.728;9.154;2023-04-16T11:12:41;96809.03;;;9.38;95.32
14689;BME280;7432;48.728;9.154;2023-04-16T11:15:11;96810.78;;;9.38;93.53
14689;BME280;7432;48.728;9.154;2023-04-16T11:17:39;96805.56;;;9.30;92.96
14689;BME280;7432;48.728;9.154;2023-04-16T11:20:07;96808.91;;;9.58;93.38
14689;BME280;7432;48.728;9.154;2023-04-16T11:22:35;96818.53;;;9.73;93.44
14689;BME280;7432;48.728;9.154;2023-04-16T11:25:02;96814.13;;;9.66;93.66
14689;BME280;7432;48.728;9.154;2023-04-16T11:27:29;96810.56;;;9.49;93.70
14689;BME280;7432;48.728;9.154;2023-04-16T11:29:57;96814.53;;;9.43;93.54
14689;BME280;7432;48.728;9.154;2023-04-16T11:32:25;96820.66;;;9.15;95.17
14689;BME280;7432;48.728;9.154;2023-04-16T11:34:51;96812.06;;;9.24;94.73
14689;BME280;7432;48.728;9.154;2023-04-16T11:37:19;96817.31;;;9.32;95.63
14689;BME280;7432;48.728;9.154;2023-04-16T11:39:47;96815.53;;;9.15;96.11
14689;BME280;7432;48.728;9.154;2023-04-16T11:42:18;96818.22;;;9.14;95.02
14689;BME280;7432;48.728;9.154;2023-04-16T11:44:50;96817.00;;;9.18;95.86
14689;BME280;7432;48.728;9.154;2023-04-16T11:47:17;96816.94;;;9.27;95.21
14689;BME280;7432;48.728;9.154;2023-04-16T11:49:45;96818.28;;;9.31;95.58
14689;BME280;7432;48.728;9.154;2023-04-16T11:52:11;96818.28;;;9.31;95.51
14689;BME280;7432;48.728;9.154;2023-04-16T11:54:37;96815.91;;;9.38;95.34
14689;BME280;7432;48.728;9.154;2023-04-16T11:57:04;96814.81;;;9.40;95.32
14689;BME280;7432;48.728;9.154;2023-04-16T11:59:30;96817.75;;;9.45;94.17
14689;BME280;7432;48.728;9.154;2023-04-16T12:01:57;96824.16;;;9.59;94.58
14689;BME280;7432;48.728;9.154;2023-04-16T12:04:25;96818.97;;;9.69;94.51
14689;BME280;7432;48.728;9.154;2023-04-16T12:07:08;96827.63;;;9.68;93.68
14689;BME280;7432;48.728;9.154;2023-04-16T12:09:36;96819.41;;;9.64;94.26
14689;BME280;7432;48.728;9.154;2023-04-16T12:12:03;96827.72;;;9.58;95.35
14689;BME280;7432;48.728;9.154;2023-04-16T12:14:30;96826.28;;;9.46;94.71
14689;BME280;7432;48.728;9.154;2023-04-16T12:17:15;96832.34;;;9.27;95.47
14689;BME280;7432;48.728;9.154;2023-04-16T12:19:47;96829.16;;;9.16;95.29
14689;BME280;7432;48.728;9.154;2023-04-16T12:22:15;96834.72;;;9.11;96.67
14689;BME280;7432;48.728;9.154;2023-04-16T12:24:41;96831.88;;;9.14;96.26
14689;BME280;7432;48.728;9.154;2023-04-16T12:27:08;96837.03;;;9.14;95.51
14689;BME280;7432;48.728;9.154;2023-04-16T12:29:34;96832.63;;;9.24;95.98
14689;BME280;7432;48.728;9.154;2023-04-16T12:32:02;96837.38;;;9.29;95.84
14689;BME280;7432;48.728;9.154;2023-04-16T12:34:29;96840.78;;;9.20;96.54
14689;BME280;7432;48.728;9.154;2023-04-16T12:37:06;96848.50;;;9.20;95.39
14689;BME280;7432;48.728;9.154;2023-04-16T12:39:35;96837.97;;;9.13;96.17
14689;BME280;7432;48.728;9.154;2023-04-16T12:42:01;96840.03;;;9.10;96.40
14689;BME280;7432;48.728;9.154;2023-04-16T12:44:29;96840.59;;;9.04;96.30
14689;BME280;7432;48.728;9.154;2023-04-16T12:46:56;96847.41;;;9.13;95.91
14689;BME280;7432;48.728;9.154;2023-04-16T12:49:23;96839.53;;;9.24;96.83
14689;BME280;7432;48.728;9.154;2023-04-16T12:51:49;96839.44;;;9.16;97.15
14689;BME280;7432;48.728;9.154;2023-04-16T12:54:16;96842.44;;;9.38;96.22
14689;BME280;7432;48.728;9.154;2023-04-16T12:56:43;96842.34;;;9.30;95.10
14689;BME280;7432;48.728;9.154;2023-04-16T12:59:10;96843.91;;;9.14;95.75
14689;BME280;7432;48.728;9.154;2023-04-16T13:01:36;96838.84;;;8.94;95.99
14689;BME280;7432;48.728;9.154;2023-04-16T13:04:02;96843.00;;;9.05;97.50
14689;BME280;7432;48.728;9.154;2023-04-16T13:06:30;96837.97;;;9.13;96.98
14689;BME280;7432;48.728;9.154;2023-04-16T13:08:58;96836.31;;;9.22;95.72
14689;BME280;7432;48.728;9.154;2023-04-16T13:11:24;96836.47;;;9.20;96.43
14689;BME280;7432;48.728;9.154;2023-04-16T13:13:52;96837.31;;;9.11;96.79